Time;durP1;ratioP1;P1;durP2;ratioP2;P2;SDS_P1;SDS_P2;PMS_P1;PMS_P2;Temp;Humidity;BMP_temperature;BMP_pressure;BME280_temperature;BME280_humidity;BME280_pressure;Samples;Min_cycle;Max_cycle;Signal;HPM_P1;HPM_P2
2023/12/31 00:01:37;;;;;;;14.55;9.93;;;;;;;8.40;62.91;99888.39;1816072;78;21302;-93
2023/12/31 00:04:44;;;;;;;15.20;9.38;;;;;;;8.46;62.87;99884.13;1815832;79;21299;-92
2023/12/31 00:07:53;;;;;;;14.40;9.95;;;;;;;8.45;62.94;99884.64;1800244;78;21366;-93
2023/12/31 00:11:00;;;;;;;13.45;9.15;;;;;;;8.75;61.69;99878.11;1798863;79;21303;-94
2023/12/31 00:14:07;;;;;;;12.45;8.50;;;;;;;8.64;62.00;99883.41;1778505;79;21308;-93
2023/12/31 00:17:13;;;;;;;11.38;8.48;;;;;;;8.65;62.13;99878.28;1800075;78;21288;-92
2023/12/31 00:20:18;;;;;;;11.40;7.80;;;;;;;8.59;62.20;99879.50;1800381;79;21356;-93
2023/12/31 00:23:23;;;;;;;12.47;8.60;;;;;;;8.47;62.53;99876.79;1779804;79;21751;-92
2023/12/31 00:26:30;;;;;;;16.62;9.73;;;;;;;8.54;62.19;99873.72;1798715;79;21331;-94
2023/12/31 00:29:38;;;;;;;13.60;9.40;;;;;;;8.52;62.34;99874.42;1799904;78;21366;-93
2023/12/31 00:32:44;;;;;;;13.78;9.15;;;;;;;8.59;62.24;99882.23;1798601;78;21311;-93
2023/12/31 00:35:52;;;;;;;16.05;9.75;;;;;;;8.52;62.76;99883.45;1801125;79;21831;-93
2023/12/31 00:39:01;;;;;;;15.28;10.48;;;;;;;8.62;62.54;99888.70;1814168;79;21930;-92
2023/12/31 00:42:07;;;;;;;14.23;10.25;;;;;;;8.76;62.14;99898.89;1814053;79;21782;-93
2023/12/31 00:45:15;;;;;;;16.85;11.45;;;;;;;8.83;62.18;99893.58;1815504;78;21243;-92
2023/12/31 00:48:22;;;;;;;20.35;10.72;;;;;;;8.76;62.61;99887.98;1815209;79;21889;-94
2023/12/31 00:51:30;;;;;;;14.45;10.13;;;;;;;8.83;62.45;99887.61;1812006;78;21340;-92
2023/12/31 00:54:38;;;;;;;19.12;13.38;;;;;;;8.36;63.99;99907.47;1801775;79;21771;-93
2023/12/31 00:57:44;;;;;;;19.67;12.25;;;;;;;8.43;64.45;99898.96;1801808;79;21316;-92
2023/12/31 01:00:51;;;;;;;23.50;14.00;;;;;;;8.80;63.64;99896.16;1801588;79;21664;-91
2023/12/31 01:03:57;;;;;;;17.90;11.48;;;;;;;8.74;64.09;99888.66;1801972;79;21847;-93
2023/12/31 01:07:04;;;;;;;22.45;13.53;;;;;;;8.90;63.97;99872.77;1780339;79;21291;-93
2023/12/31 01:10:15;;;;;;;19.12;13.55;;;;;;;8.99;63.51;99883.12;1762663;81;21288;-93
2023/12/31 01:13:23;;;;;;;17.50;11.83;;;;;;;9.02;63.64;99874.59;1746237;81;22082;-93
2023/12/31 01:16:31;;;;;;;17.55;11.45;;;;;;;8.99;63.47;99858.08;1763213;79;21378;-93
2023/12/31 01:19:37;;;;;;;18.45;12.43;;;;;;;8.75;63.98;99867.20;1762300;81;21881;-94
2023/12/31 01:22:38;;;;;;;21.87;12.23;;;;;;;8.99;62.93;99872.20;1791965;80;21204;-93
2023/12/31 01:25:31;;;;;;;20.17;13.30;;;;;;;8.90;63.23;99880.44;1796847;79;21304;-93
2023/12/31 01:28:17;;;;;;;18.92;12.85;;;;;;;9.13;62.48;99870.13;1801021;80;21316;-92
2023/12/31 01:31:10;;;;;;;21.02;12.25;;;;;;;8.98;63.02;99875.97;1800926;80;21196;-92
2023/12/31 01:33:57;;;;;;;18.45;12.25;;;;;;;8.87;63.00;99876.69;1801261;80;21153;-92
2023/12/31 01:36:51;;;;;;;20.05;13.48;;;;;;;8.68;63.66;99880.67;1798829;80;21201;-92
2023/12/31 01:39:38;;;;;;;17.75;12.45;;;;;;;8.84;63.31;99874.82;1795056;80;21213;-92
2023/12/31 01:42:46;;;;;;;19.37;12.78;;;;;;;8.84;62.97;99875.66;1795067;78;21281;-93
2023/12/31 01:45:52;;;;;;;17.48;11.95;;;;;;;8.83;62.92;99878.06;1794284;78;21318;-92
2023/12/31 01:48:59;;;;;;;25.80;14.20;;;;;;;8.80;63.11;99877.08;1794384;78;21344;-93
2023/12/31 01:52:06;;;;;;;19.00;12.63;;;;;;;8.90;62.58;99879.59;1797654;80;22509;-94
2023/12/31 01:55:13;;;;;;;21.93;13.65;;;;;;;8.93;62.66;99884.16;1801016;80;21197;-92
2023/12/31 01:58:20;;;;;;;20.15;13.53;;;;;;;8.82;63.36;99879.61;1797554;80;21866;-94
2023/12/31 02:01:22;;;;;;;29.25;15.50;;;;;;;8.85;63.75;99883.37;1796543;80;21316;-93
2023/12/31 02:04:14;;;;;;;20.88;13.30;;;;;;;9.11;63.10;99885.80;1796845;80;21220;-93
2023/12/31 02:07:02;;;;;;;18.62;13.75;;;;;;;9.11;63.24;99885.80;1796701;80;21296;-93
2023/12/31 02:09:55;;;;;;;19.57;12.35;;;;;;;9.14;62.92;99884.95;1795846;78;21359;-93
2023/12/31 02:13:03;;;;;;;21.62;13.78;;;;;;;9.17;62.44;99885.09;1796717;80;21213;-93
2023/12/31 02:16:11;;;;;;;18.48;12.47;;;;;;;9.23;61.86;99880.83;1795174;78;21855;-93
2023/12/31 02:19:17;;;;;;;19.40;12.75;;;;;;;9.01;62.89;99888.75;1794946;80;21311;-93
2023/12/31 02:22:27;;;;;;;21.07;13.58;;;;;;;8.98;62.94;99891.81;1796524;80;21288;-94
2023/12/31 02:25:38;;;;;;;21.27;13.00;;;;;;;9.23;62.56;99891.73;1796287;79;21221;-94
2023/12/31 02:28:45;;;;;;;21.42;14.25;;;;;;;9.01;63.21;99889.27;1796353;80;21308;-94
2023/12/31 02:31:46;;;;;;;30.15;14.87;;;;;;;9.11;62.80;99893.47;1779641;80;21339;-93
2023/12/31 02:34:44;;;;;;;23.77;15.08;;;;;;;9.23;62.21;99888.49;1796963;80;21367;-94
2023/12/31 02:37:48;;;;;;;21.80;13.83;;;;;;;9.26;61.94;99892.20;1767824;80;21287;-92
2023/12/31 02:40:55;;;;;;;25.15;15.32;;;;;;;9.20;62.26;99897.02;1762003;81;21363;-94
2023/12/31 02:44:02;;;;;;;33.55;16.70;;;;;;;9.21;62.55;99894.63;1763799;81;21847;-94
2023/12/31 02:47:11;;;;;;;23.75;15.20;;;;;;;9.26;62.55;99895.45;1763410;79;21347;-94
2023/12/31 02:50:17;;;;;;;30.43;16.37;;;;;;;9.39;62.11;99893.85;1746816;81;21951;-93
2023/12/31 02:53:23;;;;;;;22.62;14.53;;;;;;;9.23;62.03;99889.86;1763253;80;21886;-92
2023/12/31 02:56:30;;;;;;;25.43;16.55;;;;;;;9.17;62.29;99894.64;1773708;81;21288;-93
2023/12/31 02:59:36;;;;;;;28.47;17.15;;;;;;;8.81;63.31;99903.31;1773950;81;21240;-92
2023/12/31 03:02:43;;;;;;;24.40;16.00;;;;;;;8.76;63.85;99911.17;1774057;81;21320;-92
2023/12/31 03:05:49;;;;;;;23.62;14.43;;;;;;;8.90;63.46;99910.45;1774352;78;21342;-93
2023/12/31 03:08:59;;;;;;;25.95;16.48;;;;;;;8.89;63.51;99921.02;1731316;80;21913;-93
2023/12/31 03:12:04;;;;;;;25.45;16.40;;;;;;;8.70;64.34;99923.63;1776791;78;21323;-93
2023/12/31 03:15:13;;;;;;;23.32;14.90;;;;;;;8.72;64.46;99920.72;1775400;80;21299;-92
2023/12/31 03:18:22;;;;;;;26.77;16.77;;;;;;;8.90;63.87;99924.08;1776550;80;21641;-94
2023/12/31 03:21:30;;;;;;;29.87;18.45;;;;;;;8.96;63.50;99928.83;1774079;78;21554;-93
2023/12/31 03:24:38;;;;;;;27.22;17.80;;;;;;;9.17;62.97;99934.20;1772341;81;21390;-92
2023/12/31 03:27:47;;;;;;;20.55;12.95;;;;;;;9.39;62.60;99932.06;1744404;81;21333;-93
2023/12/31 03:30:54;;;;;;;25.80;17.17;;;;;;;9.21;63.17;99942.38;1772977;81;21988;-93
2023/12/31 03:34:01;;;;;;;33.78;21.20;;;;;;;9.13;63.61;99939.70;1774085;81;21309;-94
2023/12/31 03:37:08;;;;;;;30.92;19.45;;;;;;;9.44;63.07;99935.11;1766596;81;21303;-93
2023/12/31 03:40:16;;;;;;;32.65;20.00;;;;;;;9.39;63.55;99933.44;1761109;81;21903;-93
2023/12/31 03:43:22;;;;;;;32.93;21.02;;;;;;;9.23;63.89;99940.34;1762488;81;21308;-93
2023/12/31 03:46:29;;;;;;;34.25;19.85;;;;;;;9.28;63.86;99942.02;1761387;81;22522;-92
2023/12/31 03:49:36;;;;;;;31.52;19.30;;;;;;;9.17;64.21;99948.73;1761369;78;21245;-92
2023/12/31 03:52:43;;;;;;;32.42;21.55;;;;;;;9.36;63.78;99947.45;1774385;80;21327;-92
2023/12/31 03:55:50;;;;;;;37.63;22.70;;;;;;;9.33;63.87;99939.61;1774343;78;21351;-92
2023/12/31 03:58:56;;;;;;;35.70;21.65;;;;;;;9.07;64.60;99945.84;1749806;81;21355;-93
2023/12/31 04:02:03;;;;;;;32.40;20.80;;;;;;;9.17;64.35;99944.63;1771111;81;21326;-94
2023/12/31 04:05:11;;;;;;;39.98;24.20;;;;;;;9.43;63.45;99953.05;1772611;78;21145;-94
2023/12/31 04:08:18;;;;;;;38.35;22.42;;;;;;;9.42;63.29;99949.98;1756348;80;21335;-93
2023/12/31 04:11:24;;;;;;;39.83;23.22;;;;;;;9.31;63.71;99948.99;1777011;78;21661;-92
2023/12/31 04:14:31;;;;;;;44.88;25.27;;;;;;;9.41;63.26;99949.14;1777201;80;21339;-95
2023/12/31 04:17:37;;;;;;;42.85;25.27;;;;;;;9.47;62.95;99948.42;1778258;77;21311;-94
2023/12/31 04:20:44;;;;;;;42.65;25.40;;;;;;;9.50;62.67;99955.38;1778204;78;21311;-93
2023/12/31 04:23:50;;;;;;;44.00;23.98;;;;;;;9.54;62.82;99957.25;1802103;79;21398;-93
2023/12/31 04:26:58;;;;;;;44.77;24.60;;;;;;;9.41;63.20;99959.18;1802513;79;21307;-93
2023/12/31 04:30:06;;;;;;;39.40;23.90;;;;;;;9.63;62.50;99968.47;1802365;79;21233;-94
2023/12/31 04:33:15;;;;;;;46.73;25.40;;;;;;;9.72;62.28;99970.98;1802131;79;21307;-93
2023/12/31 04:36:22;;;;;;;51.35;29.77;;;;;;;9.74;62.45;99976.28;1802452;79;21303;-92
2023/12/31 04:39:27;;;;;;;48.52;25.97;;;;;;;9.84;62.31;99980.16;1801993;79;21872;-93
2023/12/31 04:42:34;;;;;;;50.15;28.80;;;;;;;9.91;62.43;99978.39;1801051;79;21311;-93
2023/12/31 04:45:41;;;;;;;44.70;26.82;;;;;;;9.86;62.10;99984.39;1802394;79;21307;-93
2023/12/31 04:48:49;;;;;;;50.00;27.50;;;;;;;9.83;62.15;99995.66;1802430;79;21344;-94
2023/12/31 04:51:54;;;;;;;45.63;26.42;;;;;;;9.99;61.74;99998.31;1800504;79;21310;-92
2023/12/31 04:55:02;;;;;;;47.45;26.05;;;;;;;9.98;61.53;100000.72;1801083;79;21303;-94
2023/12/31 04:58:08;;;;;;;46.13;27.00;;;;;;;9.87;61.92;99998.89;1799782;79;21628;-94
2023/12/31 05:01:17;;;;;;;49.10;28.73;;;;;;;9.89;61.49;99992.23;1800716;79;21331;-93
2023/12/31 05:04:24;;;;;;;43.08;25.60;;;;;;;10.02;61.13;99991.66;1802074;78;21304;-93
2023/12/31 05:07:31;;;;;;;47.98;29.32;;;;;;;9.68;62.08;99994.21;1802010;79;21303;-93
2023/12/31 05:10:37;;;;;;;49.13;28.05;;;;;;;9.62;62.68;99991.35;1802114;79;21224;-93
2023/12/31 05:13:45;;;;;;;48.02;27.93;;;;;;;9.80;62.12;99997.92;1802165;78;21280;-93
2023/12/31 05:16:52;;;;;;;48.78;29.00;;;;;;;9.79;62.01;99999.81;1801789;79;21307;-92
2023/12/31 05:19:57;;;;;;;52.48;28.07;;;;;;;9.86;61.69;100005.40;1801831;79;21870;-92
2023/12/31 05:23:06;;;;;;;45.15;26.45;;;;;;;9.72;61.38;100009.22;1790289;78;21330;-94
2023/12/31 05:26:12;;;;;;;48.83;27.10;;;;;;;9.69;61.49;100012.33;1791587;78;22727;-93
2023/12/31 05:29:19;;;;;;;49.40;29.00;;;;;;;9.60;61.63;100009.81;1791806;80;21876;-93
2023/12/31 05:32:26;;;;;;;42.73;26.68;;;;;;;9.77;61.02;100015.51;1791080;78;21237;-94
2023/12/31 05:35:33;;;;;;;54.55;30.08;;;;;;;9.81;60.69;100020.95;1789915;80;21201;-94
2023/12/31 05:38:39;;;;;;;50.55;29.70;;;;;;;9.77;60.46;100011.41;1791562;78;21284;-92
2023/12/31 05:41:44;;;;;;;49.38;27.60;;;;;;;9.65;60.25;100019.68;1790084;80;21874;-93
2023/12/31 05:44:50;;;;;;;48.60;28.62;;;;;;;9.54;60.21;100016.80;1791383;80;21285;-93
2023/12/31 05:47:58;;;;;;;47.98;27.62;;;;;;;9.26;60.82;100012.30;1791537;80;21344;-93
2023/12/31 05:51:06;;;;;;;50.10;28.15;;;;;;;9.34;60.56;100010.91;1794995;79;21303;-93
2023/12/31 05:54:12;;;;;;;48.58;29.00;;;;;;;9.23;60.55;100025.45;1813281;79;21294;-93
2023/12/31 05:57:20;;;;;;;49.50;30.20;;;;;;;9.30;60.18;100021.84;1812711;79;21306;-93
2023/12/31 06:00:25;;;;;;;47.15;27.20;;;;;;;9.12;60.50;100030.75;1807461;79;21176;-92
2023/12/31 06:03:33;;;;;;;44.30;26.00;;;;;;;9.05;60.57;100028.39;1806249;79;21346;-93
2023/12/31 06:06:43;;;;;;;44.23;25.80;;;;;;;8.91;60.95;100032.67;1808674;79;21303;-93
2023/12/31 06:09:49;;;;;;;46.90;28.12;;;;;;;8.84;61.23;100029.77;1810536;78;21227;-93
2023/12/31 06:12:58;;;;;;;44.63;26.30;;;;;;;8.88;60.73;100029.77;1809970;79;21369;-93
2023/12/31 06:16:05;;;;;;;46.68;27.10;;;;;;;8.88;60.66;100036.58;1809994;79;21355;-94
2023/12/31 06:19:12;;;;;;;36.63;23.85;;;;;;;8.87;60.44;100031.31;1810740;78;21247;-92
2023/12/31 06:22:20;;;;;;;43.50;26.23;;;;;;;8.78;60.65;100040.52;1807085;79;21169;-94
2023/12/31 06:25:26;;;;;;;45.55;26.62;;;;;;;8.68;60.80;100043.42;1807295;77;21176;-93
2023/12/31 06:28:33;;;;;;;47.23;27.20;;;;;;;8.61;61.16;100042.38;1807687;79;22025;-92
2023/12/31 06:31:41;;;;;;;45.43;26.97;;;;;;;8.58;61.41;100053.65;1806972;79;21228;-93
2023/12/31 06:34:47;;;;;;;44.20;27.98;;;;;;;8.76;61.08;100050.77;1807445;78;21303;-93
2023/12/31 06:37:53;;;;;;;41.68;25.02;;;;;;;8.83;60.82;100049.88;1798721;79;21311;-93
2023/12/31 06:40:59;;;;;;;40.98;24.92;;;;;;;9.12;60.01;100050.70;1799368;79;21263;-93
2023/12/31 06:44:06;;;;;;;45.80;25.43;;;;;;;9.32;59.43;100051.19;1798843;79;21300;-94
2023/12/31 06:47:12;;;;;;;43.73;23.73;;;;;;;9.18;59.90;100058.73;1798803;79;21315;-93
2023/12/31 06:50:19;;;;;;;35.95;22.30;;;;;;;9.38;59.72;100052.36;1799731;79;21193;-92
2023/12/31 06:53:26;;;;;;;39.63;22.75;;;;;;;9.33;59.75;100050.16;1799358;79;21292;-93
2023/12/31 06:56:33;;;;;;;33.92;22.27;;;;;;;9.38;60.07;100053.21;1799929;79;21303;-93
2023/12/31 06:59:40;;;;;;;36.88;22.93;;;;;;;9.26;60.40;100051.86;1798382;79;21247;-93
2023/12/31 07:02:47;;;;;;;38.00;22.75;;;;;;;9.42;59.89;100053.72;1798679;79;21334;-92
2023/12/31 07:05:54;;;;;;;36.95;21.55;;;;;;;9.55;59.53;100049.05;1801688;79;21332;-93
2023/12/31 07:09:01;;;;;;;33.78;20.72;;;;;;;9.51;59.88;100060.86;1816815;79;21303;-94
2023/12/31 07:12:08;;;;;;;32.88;20.05;;;;;;;9.47;60.25;100058.98;1816786;79;21323;-94
2023/12/31 07:15:15;;;;;;;31.42;21.42;;;;;;;9.36;60.74;100056.64;1817130;79;21291;-94
2023/12/31 07:18:23;;;;;;;31.27;19.00;;;;;;;9.32;61.42;100067.56;1815953;79;21893;-92
2023/12/31 07:21:31;;;;;;;27.73;18.50;;;;;;;9.43;60.91;100074.02;1816782;79;21298;-94
2023/12/31 07:24:37;;;;;;;29.20;18.48;;;;;;;9.39;61.08;100076.74;1793033;79;21223;-93
2023/12/31 07:27:43;;;;;;;27.30;18.37;;;;;;;9.63;60.62;100073.61;1816582;78;21901;-92
2023/12/31 07:30:50;;;;;;;27.20;16.02;;;;;;;9.72;60.32;100074.77;1814857;79;21298;-92
2023/12/31 07:33:57;;;;;;;29.25;18.15;;;;;;;9.89;60.04;100074.20;1793532;79;21917;-93
2023/12/31 07:37:04;;;;;;;27.95;18.15;;;;;;;9.76;60.34;100079.37;1810414;79;21774;-92
2023/12/31 07:40:14;;;;;;;27.50;17.50;;;;;;;9.94;60.22;100086.80;1805976;79;21350;-93
2023/12/31 07:43:19;;;;;;;28.32;17.77;;;;;;;10.21;59.34;100081.90;1806003;79;21323;-93
2023/12/31 07:46:26;;;;;;;25.72;16.23;;;;;;;10.22;59.40;100086.33;1804555;79;21187;-93
2023/12/31 07:49:33;;;;;;;25.30;15.83;;;;;;;10.27;59.58;100100.34;1804260;79;21284;-94
2023/12/31 07:52:40;;;;;;;31.70;17.35;;;;;;;10.48;58.92;100108.73;1805425;79;21165;-94
2023/12/31 07:55:47;;;;;;;25.37;16.52;;;;;;;10.39;59.33;100107.09;1805535;79;21312;-92
2023/12/31 07:58:55;;;;;;;24.37;16.45;;;;;;;10.57;58.85;100099.13;1805450;79;21311;-93
2023/12/31 08:02:03;;;;;;;21.33;14.25;;;;;;;10.63;58.58;100113.43;1799521;79;22128;-93
2023/12/31 08:05:09;;;;;;;23.15;14.55;;;;;;;10.37;59.45;100119.25;1801374;79;21352;-93
2023/12/31 08:08:16;;;;;;;23.57;14.63;;;;;;;10.24;60.16;100103.42;1778675;80;21319;-94
2023/12/31 08:11:21;;;;;;;22.62;13.50;;;;;;;10.36;59.63;100117.03;1778518;78;21153;-93
2023/12/31 08:14:28;;;;;;;20.75;13.20;;;;;;;10.60;59.10;100121.50;1778268;80;21308;-93
2023/12/31 08:17:35;;;;;;;17.67;12.00;;;;;;;10.56;58.79;100132.98;1778805;80;21311;-92
2023/12/31 08:20:35;;;;;;;19.07;12.20;;;;;;;10.51;58.82;100121.73;1777912;80;21962;-94
2023/12/31 08:23:42;;;;;;;20.65;12.63;;;;;;;10.62;58.05;100111.73;1777327;80;21303;-93
2023/12/31 08:26:48;;;;;;;22.07;13.40;;;;;;;10.72;57.57;100117.30;1778640;80;21296;-93
2023/12/31 08:29:55;;;;;;;23.00;13.95;;;;;;;10.53;57.90;100107.34;1777425;80;21280;-93
2023/12/31 08:33:04;;;;;;;20.85;13.20;;;;;;;10.62;57.46;100109.00;1777151;80;21332;-94
2023/12/31 08:36:10;;;;;;;17.73;12.88;;;;;;;10.48;58.06;100110.11;1783549;79;21225;-93
2023/12/31 08:39:20;;;;;;;19.75;12.33;;;;;;;10.40;58.32;100118.38;1804229;79;21562;-93
2023/12/31 08:42:30;;;;;;;16.85;11.22;;;;;;;10.54;58.08;100114.52;1802385;79;21362;-93
2023/12/31 08:45:39;;;;;;;17.77;12.05;;;;;;;10.21;58.63;100116.06;1802550;79;21315;-94
2023/12/31 08:48:45;;;;;;;16.75;11.22;;;;;;;10.21;59.17;100120.17;1803513;79;21327;-94
2023/12/31 08:51:51;;;;;;;18.23;12.60;;;;;;;10.20;59.42;100118.44;1800451;79;21862;-93
2023/12/31 08:54:59;;;;;;;19.92;11.60;;;;;;;10.31;58.91;100135.02;1797383;80;21339;-93
2023/12/31 08:58:06;;;;;;;16.55;11.08;;;;;;;10.29;58.93;100124.75;1798186;80;21296;-93
2023/12/31 09:01:13;;;;;;;18.77;10.85;;;;;;;10.39;58.70;100112.55;1796354;80;21313;-93
2023/12/31 09:04:19;;;;;;;17.57;10.75;;;;;;;10.49;58.62;100115.94;1791568;79;21339;-93
2023/12/31 09:07:26;;;;;;;23.67;11.55;;;;;;;10.71;58.05;100113.38;1790647;80;21281;-91
2023/12/31 09:10:33;;;;;;;18.92;10.20;;;;;;;10.95;57.05;100118.66;1790680;80;21352;-92
2023/12/31 09:13:40;;;;;;;15.78;9.98;;;;;;;10.79;57.43;100113.33;1790673;80;21913;-93
2023/12/31 09:16:48;;;;;;;14.83;9.48;;;;;;;10.94;56.95;100110.64;1790414;80;21209;-93
2023/12/31 09:20:00;;;;;;;12.47;8.28;;;;;;;10.93;56.78;100101.59;1791900;80;21307;-93
2023/12/31 09:23:05;;;;;;;14.20;7.95;;;;;;;10.91;56.82;100102.27;1791690;80;21300;-93
2023/12/31 09:26:10;;;;;;;12.13;7.40;;;;;;;10.93;56.92;100098.84;1790352;78;21284;-93
2023/12/31 09:29:17;;;;;;;15.65;7.60;;;;;;;11.12;56.01;100107.07;1791991;80;21308;-93
2023/12/31 09:32:23;;;;;;;11.50;7.45;;;;;;;11.08;55.67;100108.99;1790190;80;21855;-91
2023/12/31 09:35:29;;;;;;;11.20;7.12;;;;;;;11.26;55.08;100103.52;1790341;80;21303;-92
2023/12/31 09:38:36;;;;;;;10.70;6.85;;;;;;;11.18;55.31;100104.95;1791975;80;21772;-93
2023/12/31 09:41:42;;;;;;;10.25;6.20;;;;;;;11.15;55.43;100101.23;1790687;78;21351;-92
2023/12/31 09:44:50;;;;;;;13.38;7.03;;;;;;;10.96;55.69;100110.81;1790456;80;21327;-93
2023/12/31 09:47:59;;;;;;;12.45;7.30;;;;;;;11.11;55.34;100108.63;1790068;80;21320;-93
2023/12/31 09:51:07;;;;;;;15.80;7.70;;;;;;;11.34;54.76;100106.70;1790687;80;21836;-93
2023/12/31 09:54:14;;;;;;;12.63;6.62;;;;;;;11.32;54.69;100103.28;1791859;80;21345;-94
2023/12/31 09:57:21;;;;;;;10.28;6.10;;;;;;;11.31;54.42;100098.84;1790126;79;21754;-93
2023/12/31 10:00:28;;;;;;;11.38;6.35;;;;;;;11.45;54.04;100101.28;1790516;80;21281;-92
2023/12/31 10:03:35;;;;;;;12.20;6.62;;;;;;;11.35;54.13;100096.08;1796203;79;21296;-92
2023/12/31 10:06:43;;;;;;;11.55;6.08;;;;;;;11.47;53.75;100091.82;1799145;78;21212;-92
2023/12/31 10:09:50;;;;;;;10.05;6.28;;;;;;;11.47;53.97;100082.76;1799175;79;21934;-93
2023/12/31 10:12:59;;;;;;;9.38;5.08;;;;;;;11.73;53.32;100092.75;1800549;78;21224;-92
2023/12/31 10:16:05;;;;;;;8.15;5.45;;;;;;;12.01;52.23;100091.58;1799359;79;21331;-93
2023/12/31 10:19:12;;;;;;;10.20;5.97;;;;;;;12.18;52.05;100085.34;1798690;79;21209;-92
2023/12/31 10:22:19;;;;;;;9.83;5.97;;;;;;;11.99;52.05;100081.83;1811033;79;21306;-92
2023/12/31 10:25:24;;;;;;;11.35;6.97;;;;;;;12.24;51.45;100082.38;1815132;79;21319;-92
2023/12/31 10:28:31;;;;;;;10.93;6.85;;;;;;;12.33;51.36;100088.56;1816179;78;21850;-92
2023/12/31 10:31:38;;;;;;;11.12;6.45;;;;;;;12.53;51.07;100079.54;1815127;79;21327;-92
2023/12/31 10:34:44;;;;;;;10.08;6.97;;;;;;;12.45;50.79;100067.31;1816518;79;21302;-92
2023/12/31 10:37:51;;;;;;;9.78;6.28;;;;;;;12.57;50.58;100074.52;1809516;79;21300;-92
2023/12/31 10:40:57;;;;;;;11.20;7.05;;;;;;;12.40;50.84;100074.42;1814606;79;21308;-92
2023/12/31 10:44:04;;;;;;;11.90;6.70;;;;;;;12.29;51.36;100077.16;1815251;79;21335;-92
2023/12/31 10:47:15;;;;;;;10.65;6.85;;;;;;;12.46;50.99;100073.64;1814318;79;21309;-93
2023/12/31 10:50:24;;;;;;;8.68;5.78;;;;;;;12.62;50.81;100084.91;1813832;78;21304;-92
2023/12/31 10:53:30;;;;;;;8.85;5.95;;;;;;;12.42;50.79;100072.33;1814498;79;21797;-94
2023/12/31 10:56:36;;;;;;;8.68;4.78;;;;;;;12.38;51.12;100080.12;1814721;79;21503;-92
2023/12/31 10:59:44;;;;;;;13.32;5.95;;;;;;;12.20;51.09;100076.42;1814961;79;21762;-92
2023/12/31 11:02:50;;;;;;;9.80;6.05;;;;;;;12.30;51.01;100069.25;1815052;79;21310;-92
2023/12/31 11:05:57;;;;;;;10.85;4.75;;;;;;;12.24;51.19;100075.52;1744693;81;21256;-92
2023/12/31 11:09:05;;;;;;;10.38;5.25;;;;;;;12.36;51.26;100070.37;1767730;79;21335;-93
2023/12/31 11:12:12;;;;;;;7.47;4.62;;;;;;;12.36;50.90;100073.95;1769078;79;21328;-92
2023/12/31 11:15:27;;;;;;;8.73;4.97;;;;;;;12.44;51.02;100073.00;1769101;81;21322;-92
2023/12/31 11:18:47;;;;;;;8.30;5.08;;;;;;;12.21;51.26;100073.16;1746047;81;21356;-92
2023/12/31 11:22:10;;;;;;;8.30;5.30;;;;;;;12.26;50.72;100078.91;1762753;81;21312;-92
2023/12/31 11:25:18;;;;;;;9.35;4.08;;;;;;;12.47;50.42;100076.21;1759197;81;21304;-93
2023/12/31 11:28:24;;;;;;;7.67;3.80;;;;;;;12.58;50.20;100083.07;1757877;79;21237;-93
2023/12/31 11:31:31;;;;;;;6.53;3.50;;;;;;;12.69;49.93;100084.44;1759047;81;21304;-93
2023/12/31 11:34:40;;;;;;;6.60;2.98;;;;;;;12.70;49.90;100086.12;1720481;81;21324;-93
2023/12/31 11:37:47;;;;;;;6.03;3.20;;;;;;;12.62;49.81;100095.36;1737658;81;21355;-93
2023/12/31 11:40:55;;;;;;;7.20;3.27;;;;;;;12.45;49.84;100086.51;1758786;81;21670;-93
2023/12/31 11:44:02;;;;;;;7.47;3.05;;;;;;;12.47;49.41;100088.55;1758163;81;21331;-92
2023/12/31 11:47:09;;;;;;;3.92;2.62;;;;;;;12.27;49.63;100080.59;1758394;81;21562;-93
2023/12/31 11:50:21;;;;;;;4.12;2.40;;;;;;;12.43;49.22;100086.39;1759847;81;21304;-92
2023/12/31 11:53:30;;;;;;;4.55;2.70;;;;;;;12.39;48.92;100081.81;1759542;81;22230;-93
2023/12/31 11:56:37;;;;;;;5.25;2.70;;;;;;;12.17;49.39;100080.91;1758042;81;21343;-93
2023/12/31 11:59:46;;;;;;;4.95;2.10;;;;;;;12.25;49.41;100074.47;1719424;81;21324;-93
2023/12/31 12:02:56;;;;;;;4.28;2.58;;;;;;;12.15;49.53;100076.67;1738106;81;21335;-93
2023/12/31 12:06:03;;;;;;;4.53;2.33;;;;;;;12.30;49.03;100080.75;1797060;79;21374;-92
2023/12/31 12:09:10;;;;;;;4.60;2.40;;;;;;;12.48;48.76;100070.20;1814764;79;21913;-92
2023/12/31 12:12:16;;;;;;;2.80;2.22;;;;;;;12.30;48.93;100071.16;1816290;79;21317;-92
2023/12/31 12:15:23;;;;;;;3.87;2.75;;;;;;;12.40;48.58;100069.78;1816201;79;22131;-93
2023/12/31 12:18:29;;;;;;;4.12;2.60;;;;;;;12.28;48.93;100075.47;1815273;79;21212;-93
2023/12/31 12:21:36;;;;;;;4.70;2.75;;;;;;;12.52;48.48;100070.98;1808828;79;21601;-93
2023/12/31 12:24:42;;;;;;;5.70;2.55;;;;;;;12.26;49.04;100074.80;1779957;79;21201;-92
2023/12/31 12:27:49;;;;;;;8.05;3.20;;;;;;;12.24;49.26;100078.27;1799679;79;22123;-93
2023/12/31 12:30:57;;;;;;;9.00;3.50;;;;;;;12.28;49.32;100076.31;1800137;79;21315;-92
2023/12/31 12:34:05;;;;;;;4.85;3.17;;;;;;;12.05;49.89;100087.09;1780269;79;21891;-92
2023/12/31 12:37:12;;;;;;;5.92;3.00;;;;;;;12.13;49.62;100096.03;1800194;79;21248;-94
2023/12/31 12:40:25;;;;;;;6.15;3.60;;;;;;;12.40;49.24;100097.73;1800228;78;21875;-93
2023/12/31 12:43:34;;;;;;;10.75;3.50;;;;;;;12.15;49.54;100109.58;1799918;79;22506;-93
2023/12/31 12:46:42;;;;;;;10.32;3.70;;;;;;;12.14;49.70;100113.34;1800166;79;21169;-92
2023/12/31 12:49:49;;;;;;;8.25;4.17;;;;;;;12.14;49.73;100116.08;1805158;78;21284;-91
2023/12/31 12:52:56;;;;;;;8.90;3.72;;;;;;;11.96;50.19;100113.23;1809453;79;21224;-92
2023/12/31 12:56:03;;;;;;;7.58;3.60;;;;;;;12.15;49.85;100115.91;1809684;78;21180;-92
2023/12/31 12:59:09;;;;;;;6.60;3.35;;;;;;;12.01;50.41;100114.87;1809561;78;21232;-92
2023/12/31 13:02:08;;;;;;;5.78;3.83;;;;;;;11.92;50.67;100117.91;1809551;78;21169;-93
2023/12/31 13:05:03;;;;;;;6.15;3.45;;;;;;;12.10;50.45;100118.37;1809551;79;21196;-92
2023/12/31 13:08:10;;;;;;;6.35;3.40;;;;;;;12.02;50.45;100115.20;1749664;81;21204;-93
2023/12/31 13:11:16;;;;;;;5.47;3.50;;;;;;;12.07;50.22;100127.49;1750255;82;21228;-92
2023/12/31 13:14:24;;;;;;;8.13;3.47;;;;;;;11.98;49.84;100121.25;1750296;81;21196;-93
2023/12/31 13:17:31;;;;;;;13.35;3.77;;;;;;;11.84;49.57;100121.59;1748882;82;21188;-92
2023/12/31 13:20:38;;;;;;;5.50;3.22;;;;;;;11.61;50.05;100120.79;1750139;79;21294;-91
2023/12/31 13:23:43;;;;;;;6.05;3.02;;;;;;;11.56;50.28;100117.77;1748588;82;21228;-93
2023/12/31 13:26:52;;;;;;;6.25;3.42;;;;;;;11.54;50.41;100114.38;1743313;79;22623;-94
2023/12/31 13:29:58;;;;;;;9.05;3.65;;;;;;;11.55;50.39;100121.03;1743735;82;21347;-93
2023/12/31 13:33:06;;;;;;;9.05;3.92;;;;;;;11.76;50.08;100124.38;1744854;81;21864;-93
2023/12/31 13:36:13;;;;;;;12.80;4.12;;;;;;;11.74;50.10;100129.21;1750820;78;21322;-92
2023/12/31 13:39:21;;;;;;;6.87;3.70;;;;;;;11.57;50.47;100129.05;1773856;81;21362;-93
2023/12/31 13:42:33;;;;;;;6.35;3.70;;;;;;;11.56;50.59;100127.35;1775685;80;21208;-92
2023/12/31 13:45:40;;;;;;;;;;;;;;;11.38;51.01;100139.50;1778224;81;21854;-92
2023/12/31 13:48:47;;;;;;;5.67;3.27;;;;;;;11.27;51.38;100141.33;1775118;80;20266;-94
2023/12/31 13:51:53;;;;;;;9.33;4.50;;;;;;;11.60;50.79;100143.23;1750850;81;21354;-94
2023/12/31 13:54:59;;;;;;;11.05;4.70;;;;;;;11.24;51.25;100143.05;1724233;83;21228;-94
2023/12/31 13:58:08;;;;;;;11.78;6.17;;;;;;;11.08;51.54;100141.31;1724071;81;21342;-93
2023/12/31 14:01:15;;;;;;;10.80;4.97;;;;;;;11.04;51.69;100144.60;1724460;83;21355;-93
2023/12/31 14:04:21;;;;;;;7.87;4.42;;;;;;;11.14;51.37;100141.09;1722958;83;21315;-92
2023/12/31 14:07:28;;;;;;;7.17;4.53;;;;;;;10.81;52.18;100145.97;1769739;79;21299;-91
2023/12/31 14:10:34;;;;;;;23.47;14.55;;;;;;;10.90;51.97;100140.25;1793206;80;21212;-93
2023/12/31 14:13:40;;;;;;;18.35;9.93;;;;;;;10.89;52.05;100150.02;1794109;80;21898;-91
2023/12/31 14:16:48;;;;;;;12.28;7.08;;;;;;;10.95;51.78;100144.66;1794413;80;21318;-92
2023/12/31 14:19:54;;;;;;;15.48;8.93;;;;;;;10.87;52.07;100148.84;1793510;78;21359;-92
2023/12/31 14:23:00;;;;;;;17.05;10.90;;;;;;;10.71;52.22;100148.42;1794078;80;21296;-93